Time;durP1;ratioP1;P1;durP2;ratioP2;P2;SDS_P1;SDS_P2;PMS_P1;PMS_P2;Temp;Humidity;BMP_temperature;BMP_pressure;BME280_temperature;BME280_humidity;BME280_pressure;Samples;Min_cycle;Max_cycle;Signal;HPM_P1;HPM_P2
2022/02/01 00:01:43;;;;;;;12.52;6.15;;;;;;;-0.19;100.00;98322.72;4170338;28;20053;-71
2022/02/01 00:03:46;;;;;;;16.77;6.93;;;;;;;-0.21;100.00;98324.97;4169860;28;20075;-72
2022/02/01 00:06:12;;;;;;;15.73;7.05;;;;;;;-0.22;100.00;98330.72;4170343;28;20053;-72
2022/02/01 00:08:24;;;;;;;11.73;6.65;;;;;;;-0.25;100.00;98329.41;4168721;28;20639;-72
2022/02/01 00:11:32;;;;;;;14.20;6.68;;;;;;;-0.22;100.00;98326.09;4170598;28;20451;-72
2022/02/01 00:13:11;;;;;;;10.90;6.07;;;;;;;-0.18;100.00;98331.69;4156423;28;20412;-71
2022/02/01 00:15:59;;;;;;;12.57;6.85;;;;;;;-0.22;100.00;98331.53;4169827;28;20052;-71
2022/02/01 00:18:17;;;;;;;17.27;7.70;;;;;;;-0.18;100.00;98339.84;4169030;28;20052;-71
2022/02/01 00:36:34;;;;;;;14.65;8.02;;;;;;;-0.22;100.00;98393.25;4169883;28;20045;-72
2022/02/01 00:38:48;;;;;;;11.77;6.63;;;;;;;-0.25;100.00;98388.41;4170413;28;20340;-72
2022/02/01 00:40:54;;;;;;;14.27;7.75;;;;;;;-0.29;100.00;98383.59;4170079;28;20123;-72
2022/02/01 00:42:55;;;;;;;14.82;8.45;;;;;;;-0.22;100.00;98388.63;4169843;28;20530;-72
2022/02/01 00:44:55;;;;;;;14.18;7.65;;;;;;;-0.25;100.00;98388.41;4170151;28;20048;-72
2022/02/01 00:46:55;;;;;;;18.80;7.78;;;;;;;-0.20;100.00;98399.97;4168837;28;20072;-72
2022/02/01 00:48:56;;;;;;;17.13;8.68;;;;;;;-0.16;100.00;98401.00;4168439;28;20049;-72
2022/02/01 00:50:57;;;;;;;16.30;7.75;;;;;;;-0.21;100.00;98386.69;4168382;28;20061;-72
2022/02/01 00:52:57;;;;;;;16.95;7.18;;;;;;;-0.23;100.00;98388.94;4168815;28;20091;-72
2022/02/01 00:54:58;;;;;;;18.45;8.68;;;;;;;-0.21;100.00;98381.25;4168819;28;20144;-72
2022/02/01 00:56:58;;;;;;;17.00;7.40;;;;;;;-0.18;100.00;98397.75;4167857;28;20208;-71
2022/02/01 00:58:58;;;;;;;16.80;7.72;;;;;;;-0.09;100.00;98385.00;4168719;28;20068;-70
2022/02/01 01:00:58;;;;;;;21.58;8.60;;;;;;;-0.06;100.00;98392.56;4168723;28;20606;-71
2022/02/01 01:02:59;;;;;;;14.65;7.05;;;;;;;-0.03;100.00;98394.66;4169260;28;20175;-71
2022/02/01 01:04:59;;;;;;;14.30;7.10;;;;;;;-0.04;100.00;98403.13;4169251;28;20040;-71
2022/02/01 01:07:00;;;;;;;13.90;7.03;;;;;;;-0.06;100.00;98399.94;4168674;28;20076;-72
2022/02/01 01:09:00;;;;;;;12.85;6.85;;;;;;;-0.03;100.00;98402.00;4169785;28;20045;-72
2022/02/01 01:11:02;;;;;;;15.52;8.27;;;;;;;-0.06;100.00;98414.31;4169515;28;20198;-72
2022/02/01 01:15:29;;;;;;;19.48;8.93;;;;;;;-0.05;100.00;98417.84;4136784;28;20474;-71
2022/02/01 01:45:20;;;;;;;16.20;7.70;;;;;;;-0.15;100.00;98427.06;4168456;28;20051;-72
2022/02/01 01:54:19;;;;;;;14.55;7.20;;;;;;;-0.06;100.00;98435.28;4169245;28;20395;-72
2022/02/01 01:56:20;;;;;;;18.15;7.40;;;;;;;-0.08;100.00;98438.31;4168786;28;20029;-72
2022/02/01 01:58:22;;;;;;;16.42;7.45;;;;;;;-0.08;100.00;98448.41;4168101;28;20142;-72
2022/02/01 02:02:43;;;;;;;10.55;6.32;;;;;;;-0.12;100.00;98437.31;4135675;28;20147;-72
2022/02/01 02:04:43;;;;;;;13.88;7.05;;;;;;;-0.13;100.00;98443.06;4168851;28;20508;-72
2022/02/01 02:06:44;;;;;;;13.13;6.60;;;;;;;-0.11;100.00;98459.88;4168403;28;20442;-72
2022/02/01 02:08:49;;;;;;;13.50;7.00;;;;;;;-0.10;100.00;98454.13;4169546;28;20091;-71
2022/02/01 02:10:58;;;;;;;12.18;6.38;;;;;;;-0.09;100.00;98463.88;4171440;28;20405;-72
2022/02/01 02:14:17;;;;;;;14.45;7.15;;;;;;;-0.10;100.00;98456.84;4172568;28;20088;-72
2022/02/01 02:15:45;;;;;;;14.93;7.22;;;;;;;-0.08;100.00;98464.72;4172123;28;20076;-72
2022/02/01 02:17:45;;;;;;;14.40;7.85;;;;;;;-0.06;100.00;98471.44;4170990;28;20511;-72
2022/02/01 02:19:45;;;;;;;11.85;7.05;;;;;;;-0.09;100.00;98472.03;4172154;28;20125;-72
2022/02/01 02:21:51;;;;;;;15.07;7.85;;;;;;;-0.10;100.00;98461.47;4172283;28;20058;-72
2022/02/01 02:23:51;;;;;;;16.90;7.90;;;;;;;-0.08;100.00;98462.00;4172304;28;20057;-72
2022/02/01 02:25:52;;;;;;;15.20;8.05;;;;;;;-0.06;100.00;98455.13;4171976;28;20496;-72
2022/02/01 02:27:53;;;;;;;19.00;9.30;;;;;;;-0.10;100.00;98462.28;4171120;28;20044;-72
2022/02/01 02:29:54;;;;;;;19.08;8.77;;;;;;;-0.10;100.00;98459.56;4170838;28;20439;-72
2022/02/01 02:31:55;;;;;;;12.95;7.30;;;;;;;-0.07;100.00;98460.88;4171354;28;20087;-72
2022/02/01 02:34:07;;;;;;;16.58;8.13;;;;;;;-0.09;100.00;98458.44;4171841;28;20109;-72
2022/02/01 02:36:14;;;;;;;15.95;7.47;;;;;;;-0.08;100.00;98465.50;4171367;28;20061;-72
2022/02/01 02:38:21;;;;;;;23.98;15.07;;;;;;;-0.06;100.00;98474.16;4171150;28;20068;-72
2022/02/01 02:40:42;;;;;;;23.30;14.23;;;;;;;-0.03;100.00;98478.19;4172042;28;20044;-72
2022/02/01 02:45:09;;;;;;;15.38;8.18;;;;;;;-0.10;100.00;98478.59;4171746;28;20145;-72
2022/02/01 02:47:09;;;;;;;15.93;9.05;;;;;;;-0.09;100.00;98485.63;4170872;28;20045;-72
2022/02/01 02:49:13;;;;;;;19.77;9.57;;;;;;;-0.09;100.00;98482.91;4171455;28;20052;-72
2022/02/01 02:51:13;;;;;;;22.55;10.13;;;;;;;-0.10;100.00;98475.88;4171675;28;20401;-72
2022/02/01 02:53:13;;;;;;;16.27;8.85;;;;;;;-0.08;100.00;98468.25;4171551;28;20048;-71
2022/02/01 02:55:14;;;;;;;22.48;9.45;;;;;;;-0.03;100.00;98475.44;4171751;28;20041;-72
2022/02/01 02:57:14;;;;;;;20.60;9.65;;;;;;;-0.05;100.00;98483.94;4170648;28;20087;-72
2022/02/01 02:59:15;;;;;;;17.70;9.38;;;;;;;-0.05;100.00;98486.66;4171823;28;20045;-72
2022/02/01 03:01:16;;;;;;;19.65;9.75;;;;;;;-0.03;100.00;98478.97;4171289;28;20075;-72
2022/02/01 03:03:16;;;;;;;17.67;9.43;;;;;;;0.01;100.00;98472.94;4171662;28;20045;-72
2022/02/01 03:05:17;;;;;;;19.80;9.75;;;;;;;0.04;100.00;98472.31;4171479;28;20323;-72
2022/02/01 03:07:17;;;;;;;17.52;8.63;;;;;;;0.00;100.00;98455.81;4170871;28;20400;-72
2022/02/01 03:09:20;;;;;;;19.75;9.95;;;;;;;0.02;100.00;98460.94;4171274;28;20045;-72
2022/02/01 03:11:20;;;;;;;19.63;9.15;;;;;;;-0.05;100.00;98454.00;4170911;28;20524;-72
2022/02/01 03:13:26;;;;;;;20.20;9.00;;;;;;;-0.07;100.00;98448.09;4171215;28;20514;-71
2022/02/01 03:19:49;;;;;;;17.88;8.65;;;;;;;-0.07;100.00;98445.38;4170755;28;20053;-72
2022/02/01 03:19:52;;;;;;;18.27;9.50;;;;;;;-0.05;100.00;98448.56;4171123;28;20048;-72
2022/02/01 03:21:52;;;;;;;20.70;8.65;;;;;;;-0.04;100.00;98446.66;4170952;28;20041;-72
2022/02/01 03:23:53;;;;;;;18.27;8.57;;;;;;;-0.06;100.00;98449.69;4171195;28;20053;-72
2022/02/01 03:25:53;;;;;;;16.75;9.13;;;;;;;-0.06;100.00;98444.25;4171237;28;20049;-72
2022/02/01 03:27:53;;;;;;;20.77;8.75;;;;;;;-0.09;100.00;98450.28;4170339;28;20142;-72
2022/02/01 03:29:54;;;;;;;20.95;9.80;;;;;;;-0.15;100.00;98446.09;4170513;28;20539;-72
2022/02/01 03:31:54;;;;;;;19.20;9.25;;;;;;;-0.12;100.00;98456.34;4171397;28;20045;-72
2022/02/01 03:33:55;;;;;;;20.52;9.52;;;;;;;-0.14;100.00;98450.44;4170719;28;20079;-72
2022/02/01 03:35:55;;;;;;;18.92;9.27;;;;;;;-0.11;100.00;98459.88;4171168;28;20437;-72
2022/02/01 03:37:57;;;;;;;20.38;9.45;;;;;;;-0.10;100.00;98454.13;4170209;28;20049;-72
2022/02/01 03:39:57;;;;;;;20.42;9.68;;;;;;;-0.11;100.00;98463.41;4171021;28;20452;-72
2022/02/01 03:41:58;;;;;;;19.25;10.25;;;;;;;-0.11;100.00;98457.97;4170542;28;20041;-72
2022/02/01 03:44:00;;;;;;;18.15;8.63;;;;;;;-0.11;100.00;98454.44;4170317;28;20056;-72
2022/02/01 03:46:01;;;;;;;23.02;9.60;;;;;;;-0.12;100.00;98461.00;4170275;28;20076;-73
2022/02/01 03:48:01;;;;;;;22.10;10.15;;;;;;;-0.18;100.00;98462.22;4169768;28;20472;-73
2022/02/01 03:50:02;;;;;;;20.15;9.07;;;;;;;-0.13;100.00;98460.19;4170676;28;20039;-72
2022/02/01 03:52:04;;;;;;;19.48;8.93;;;;;;;-0.17;100.00;98461.91;4170445;28;20190;-72
2022/02/01 03:54:05;;;;;;;20.73;9.13;;;;;;;-0.08;100.00;98470.97;4170974;28;20063;-72
2022/02/01 03:56:06;;;;;;;24.05;10.15;;;;;;;-0.12;100.00;98469.94;4170159;28;20037;-72
2022/02/01 03:58:06;;;;;;;22.83;9.25;;;;;;;-0.05;100.00;98473.03;4169830;28;20039;-72
2022/02/01 04:00:08;;;;;;;19.48;8.95;;;;;;;-0.10;100.00;98475.88;4170554;28;20025;-72
2022/02/01 04:02:08;;;;;;;21.58;9.40;;;;;;;-0.12;100.00;98477.31;4170474;28;20049;-72
2022/02/01 04:04:08;;;;;;;20.45;9.50;;;;;;;-0.11;100.00;98487.06;4171003;28;20547;-72
2022/02/01 04:06:08;;;;;;;21.02;8.88;;;;;;;-0.06;100.00;98474.16;4170522;28;20094;-72
2022/02/01 04:08:11;;;;;;;18.00;8.55;;;;;;;-0.03;100.00;98478.97;4169509;28;20044;-72
2022/02/01 04:10:13;;;;;;;19.98;8.13;;;;;;;-0.06;100.00;98468.72;4170232;28;20072;-72
2022/02/01 04:12:13;;;;;;;16.02;7.75;;;;;;;-0.05;100.00;98470.34;4170609;28;20037;-72
2022/02/01 04:14:18;;;;;;;21.60;8.35;;;;;;;-0.04;100.00;98458.34;4170226;28;20029;-72
2022/02/01 04:16:18;;;;;;;16.60;8.18;;;;;;;-0.04;100.00;98463.78;4169412;28;20368;-72
2022/02/01 04:18:18;;;;;;;18.55;8.23;;;;;;;0.01;100.00;98467.50;4169700;28;20059;-72
2022/02/01 04:20:19;;;;;;;19.92;9.02;;;;;;;-0.04;100.00;98474.66;4170607;28;20535;-72
2022/02/01 04:22:19;;;;;;;18.95;8.70;;;;;;;-0.05;100.00;98467.59;4170504;28;20227;-72
2022/02/01 04:24:20;;;;;;;19.83;8.43;;;;;;;-0.02;100.00;98469.69;4169931;28;20780;-72
2022/02/01 04:26:20;;;;;;;17.45;8.25;;;;;;;-0.06;100.00;98467.91;4169716;28;20141;-72
2022/02/01 04:28:20;;;;;;;19.25;9.07;;;;;;;-0.03;100.00;98478.19;4168810;28;20107;-72
2022/02/01 04:30:21;;;;;;;21.98;8.63;;;;;;;-0.01;100.00;98465.88;4168645;28;20129;-72
2022/02/01 04:32:21;;;;;;;18.33;8.00;;;;;;;0.10;100.00;98471.88;4169316;28;20504;-72
2022/02/01 04:34:21;;;;;;;18.23;7.47;;;;;;;0.04;100.00;98481.28;4169084;28;20049;-71
2022/02/01 04:36:22;;;;;;;16.33;7.63;;;;;;;0.14;100.00;98485.66;4170075;28;20080;-72
2022/02/01 04:38:22;;;;;;;18.30;8.40;;;;;;;0.10;100.00;98499.09;4168600;28;20092;-72
2022/02/01 04:40:24;;;;;;;16.42;8.07;;;;;;;0.10;100.00;98487.41;4170109;28;20045;-71
2022/02/01 04:42:27;;;;;;;13.73;6.88;;;;;;;0.16;100.00;98497.03;4167489;28;20052;-72
2022/02/01 04:44:28;;;;;;;14.75;7.20;;;;;;;0.18;100.00;98511.94;4168717;28;20102;-72
2022/02/01 04:46:29;;;;;;;13.90;7.00;;;;;;;0.11;100.00;98516.22;4167949;28;20056;-72
2022/02/01 04:48:29;;;;;;;16.77;6.75;;;;;;;0.06;100.00;98511.69;4168630;28;20501;-72
2022/02/01 04:50:30;;;;;;;13.85;6.47;;;;;;;0.05;100.00;98504.63;4169831;28;20485;-72
2022/02/01 04:52:31;;;;;;;12.48;7.10;;;;;;;-0.04;100.00;98512.72;4169106;28;20397;-72
2022/02/01 04:54:31;;;;;;;14.27;6.70;;;;;;;0.06;100.00;98521.75;4169587;28;20037;-72
2022/02/01 04:56:32;;;;;;;14.43;6.88;;;;;;;0.02;100.00;98509.91;4168885;28;20041;-72
2022/02/01 04:58:32;;;;;;;12.05;6.60;;;;;;;-0.01;100.00;98511.31;4169012;28;20088;-72
2022/02/01 05:00:33;;;;;;;13.27;6.20;;;;;;;0.02;100.00;98510.72;4169278;28;20630;-72
2022/02/01 05:02:33;;;;;;;14.10;5.82;;;;;;;0.04;100.00;98519.34;4169221;28;20086;-72
2022/02/01 05:04:33;;;;;;;7.97;4.97;;;;;;;0.11;100.00;98516.22;4169817;28;20130;-72
2022/02/01 05:06:35;;;;;;;14.75;5.22;;;;;;;0.08;100.00;98524.97;4168346;28;20123;-72
2022/02/01 05:08:35;;;;;;;12.07;4.63;;;;;;;0.04;100.00;98507.69;4168880;28;20404;-71
2022/02/01 05:10:36;;;;;;;12.63;6.00;;;;;;;-0.12;100.00;98510.75;4169273;28;20037;-71
2022/02/01 05:12:38;;;;;;;11.52;4.97;;;;;;;-0.18;100.00;98503.81;4168750;28;20108;-71
2022/02/01 05:14:38;;;;;;;10.80;5.13;;;;;;;-0.23;100.00;98498.50;4169417;28;20362;-71
2022/02/01 05:16:56;;;;;;;10.75;5.15;;;;;;;-0.26;100.00;98490.13;4168302;28;20055;-71
2022/02/01 05:19:06;;;;;;;12.48;5.57;;;;;;;-0.24;100.00;98487.94;4169281;28;20049;-71
2022/02/01 05:21:11;;;;;;;13.93;4.65;;;;;;;-0.25;100.00;98494.47;4169434;28;20546;-71
2022/02/01 05:23:12;;;;;;;11.80;5.30;;;;;;;-0.25;100.00;98497.19;4169336;28;20041;-71
2022/02/01 05:25:13;;;;;;;7.72;4.25;;;;;;;-0.24;100.00;98494.19;4169251;28;20386;-71
2022/02/01 05:27:14;;;;;;;9.32;3.50;;;;;;;-0.26;100.00;98498.28;4167745;28;20045;-72
2022/02/01 05:29:14;;;;;;;8.60;3.22;;;;;;;-0.19;100.00;98488.59;4169562;28;20535;-72
2022/02/01 05:31:14;;;;;;;8.77;2.90;;;;;;;-0.16;100.00;98479.06;4168949;28;20051;-72
2022/02/01 05:33:15;;;;;;;12.88;3.50;;;;;;;-0.17;100.00;98485.56;4168889;28;20208;-72
2022/02/01 05:35:15;;;;;;;9.85;3.15;;;;;;;-0.10;100.00;98492.19;4169352;28;20048;-71
2022/02/01 05:37:15;;;;;;;13.18;3.25;;;;;;;-0.11;100.00;98496.03;4167663;28;20076;-72
2022/02/01 05:39:22;;;;;;;9.32;3.20;;;;;;;-0.08;100.00;98498.16;4168989;28;20139;-72
2022/02/01 05:41:25;;;;;;;11.60;3.97;;;;;;;-0.03;100.00;98508.91;4168564;28;20524;-72
2022/02/01 05:43:28;;;;;;;10.05;3.67;;;;;;;-0.02;100.00;98509.69;4168648;28;20037;-72
2022/02/01 05:45:33;;;;;;;7.70;3.90;;;;;;;-0.04;100.00;98495.63;4170993;28;20191;-72
2022/02/01 05:47:33;;;;;;;6.60;3.10;;;;;;;-0.03;100.00;98505.38;4172356;28;20134;-72
2022/02/01 05:49:33;;;;;;;12.55;3.55;;;;;;;-0.11;100.00;98506.91;4172399;28;20485;-71
2022/02/01 05:51:34;;;;;;;13.10;3.95;;;;;;;-0.08;100.00;98508.22;4171050;28;20514;-72
2022/02/01 05:53:35;;;;;;;8.13;3.53;;;;;;;-0.12;100.00;98509.94;4171365;28;20095;-72
2022/02/01 05:55:35;;;;;;;7.20;3.58;;;;;;;-0.10;100.00;98513.94;4171187;28;20044;-72
2022/02/01 05:57:36;;;;;;;10.48;4.25;;;;;;;-0.16;100.00;98530.72;4163724;28;20362;-72
2022/02/01 05:59:37;;;;;;;21.42;4.85;;;;;;;-0.15;100.00;98530.41;4183300;28;20536;-72
2022/02/01 06:01:38;;;;;;;10.35;3.90;;;;;;;-0.08;100.00;98525.34;4188937;28;20033;-72
2022/02/01 06:03:38;;;;;;;11.98;3.92;;;;;;;-0.03;100.00;98530.66;4188536;28;20068;-72
2022/02/01 06:05:39;;;;;;;8.23;3.17;;;;;;;0.10;100.00;98534.47;4188361;28;20050;-71
2022/02/01 06:07:39;;;;;;;10.30;4.10;;;;;;;0.07;100.00;98523.38;4188137;28;20050;-72
2022/02/01 06:09:40;;;;;;;16.08;4.05;;;;;;;0.04;100.00;98524.00;4187857;28;20388;-72
2022/02/01 06:11:40;;;;;;;10.93;3.47;;;;;;;0.01;100.00;98535.50;4188584;28;20049;-72
2022/02/01 06:13:40;;;;;;;13.40;3.40;;;;;;;0.12;100.00;98553.19;4188571;28;20442;-72
2022/02/01 06:15:41;;;;;;;12.63;3.25;;;;;;;0.12;100.00;98553.19;4187016;28;20044;-72
2022/02/01 06:17:42;;;;;;;10.20;2.80;;;;;;;0.09;100.00;98553.81;4187448;28;20072;-72
2022/02/01 06:19:42;;;;;;;11.10;3.00;;;;;;;0.04;100.00;98545.75;4188781;28;20047;-72
2022/02/01 06:21:42;;;;;;;4.72;2.33;;;;;;;0.02;100.00;98558.88;4189011;28;20048;-72
2022/02/01 06:23:43;;;;;;;9.23;3.30;;;;;;;0.03;100.00;98557.75;4187804;28;20060;-72
2022/02/01 06:25:51;;;;;;;11.45;2.80;;;;;;;-0.03;100.00;98559.78;4187955;28;20049;-72
2022/02/01 06:27:51;;;;;;;15.73;4.10;;;;;;;0.02;100.00;98569.75;4187436;28;20052;-71
2022/02/01 06:29:52;;;;;;;12.40;2.80;;;;;;;0.06;100.00;98571.53;4188304;28;20089;-72
2022/02/01 06:31:53;;;;;;;9.82;2.65;;;;;;;0.02;100.00;98577.91;4188079;28;20053;-72
2022/02/01 06:33:53;;;;;;;11.15;2.95;;;;;;;0.01;100.00;98584.47;4187530;28;20157;-71
2022/02/01 06:35:54;;;;;;;14.60;3.63;;;;;;;0.00;100.00;98578.22;4188716;28;20527;-72
2022/02/01 06:37:54;;;;;;;15.90;3.25;;;;;;;-0.07;100.00;98577.84;4187426;28;20041;-72
2022/02/01 06:39:54;;;;;;;15.27;2.83;;;;;;;-0.07;100.00;98577.84;4186911;28;20472;-72
2022/02/01 06:41:55;;;;;;;5.65;2.53;;;;;;;0.02;100.00;98567.03;4187252;28;20099;-72
2022/02/01 06:43:56;;;;;;;8.68;2.80;;;;;;;0.05;100.00;98561.75;4186384;28;20046;-72
2022/02/01 06:45:58;;;;;;;12.07;2.45;;;;;;;-0.01;100.00;98566.50;4186778;28;20125;-72
2022/02/01 06:47:59;;;;;;;12.10;2.47;;;;;;;0.03;100.00;98563.19;4186397;28;20414;-72
2022/02/01 06:49:59;;;;;;;13.98;3.05;;;;;;;-0.02;100.00;98570.34;4187267;28;20045;-72
2022/02/01 06:52:01;;;;;;;9.50;2.80;;;;;;;0.01;99.71;98565.44;4186030;28;20051;-72
2022/02/01 06:54:02;;;;;;;8.25;3.03;;;;;;;0.00;99.81;98564.63;4186537;28;20524;-72
2022/02/01 06:56:12;;;;;;;10.07;2.35;;;;;;;0.07;99.07;98564.19;4186672;28;20365;-72
2022/02/01 06:58:15;;;;;;;20.67;3.85;;;;;;;-0.02;99.60;98564.91;4186741;28;20792;-72
2022/02/01 07:00:16;;;;;;;13.82;3.38;;;;;;;-0.03;99.24;98555.13;4187522;28;20097;-72
2022/02/01 07:02:16;;;;;;;9.27;3.03;;;;;;;-0.01;98.73;98560.25;4187481;28;20033;-72
2022/02/01 07:04:16;;;;;;;14.82;2.58;;;;;;;-0.04;98.41;98550.81;4187172;28;20032;-72
2022/02/01 07:06:18;;;;;;;10.85;2.42;;;;;;;0.02;98.32;98550.72;4187337;28;20334;-72
2022/02/01 07:08:18;;;;;;;10.77;2.85;;;;;;;0.06;97.15;98548.97;4185964;28;20450;-72
2022/02/01 07:10:18;;;;;;;13.10;3.38;;;;;;;0.07;96.12;98540.50;4187241;28;20361;-72
2022/02/01 07:12:19;;;;;;;18.15;4.13;;;;;;;0.07;96.74;98539.69;4187307;28;20442;-72
2022/02/01 07:14:19;;;;;;;16.88;4.47;;;;;;;0.06;96.59;98529.94;4186865;28;20032;-72
2022/02/01 07:16:20;;;;;;;18.40;3.92;;;;;;;0.04;97.12;98537.59;4187402;28;20036;-72
2022/02/01 07:18:20;;;;;;;25.70;7.55;;;;;;;0.01;97.43;98546.38;4186166;28;21737;-72
2022/02/01 07:20:21;;;;;;;14.70;3.65;;;;;;;-0.05;97.58;98549.22;4187096;28;20639;-72
2022/02/01 07:22:22;;;;;;;11.98;4.35;;;;;;;-0.08;97.81;98557.19;4186985;28;20523;-72
2022/02/01 07:24:30;;;;;;;15.13;3.92;;;;;;;-0.07;97.55;98551.44;4187239;28;20040;-72
2022/02/01 07:26:32;;;;;;;16.75;4.28;;;;;;;0.03;96.18;98569.44;4187262;28;20040;-72
2022/02/01 07:28:34;;;;;;;12.75;2.95;;;;;;;0.05;95.41;98569.94;4186678;28;20091;-72
2022/02/01 07:30:34;;;;;;;;;;;;;;;0.12;94.92;98569.50;4187356;28;20063;-72
2022/02/01 07:32:35;;;;;;;10.60;2.60;;;;;;;0.09;94.79;98554.63;4187013;28;19920;-72
2022/02/01 07:34:36;;;;;;;11.65;4.45;;;;;;;0.19;93.54;98550.84;4186959;28;20037;-72
2022/02/01 07:36:36;;;;;;;10.05;2.65;;;;;;;0.16;93.57;98551.44;4185867;28;20428;-72
2022/02/01 07:38:36;;;;;;;9.80;2.63;;;;;;;0.22;92.96;98567.34;4149503;28;1071290;-72
2022/02/01 07:40:37;;;;;;;8.23;2.58;;;;;;;0.24;93.09;98570.56;4187971;28;20083;-72
2022/02/01 07:42:38;;;;;;;10.80;2.63;;;;;;;0.22;93.16;98572.78;4187712;28;20131;-72
2022/02/01 07:44:38;;;;;;;19.27;3.22;;;;;;;0.17;93.70;98569.41;4187544;28;20056;-72
2022/02/01 07:46:41;;;;;;;9.10;2.50;;;;;;;0.17;94.36;98563.97;4186921;28;20056;-72
2022/02/01 07:48:41;;;;;;;11.73;2.40;;;;;;;0.19;94.61;98587.03;4186452;28;20067;-72
2022/02/01 07:50:43;;;;;;;13.98;2.85;;;;;;;0.19;94.27;98578.06;4187557;28;20040;-72
2022/02/01 07:52:43;;;;;;;12.82;3.40;;;;;;;0.18;94.75;98571.00;4186851;28;20376;-72
2022/02/01 07:54:45;;;;;;;10.18;2.40;;;;;;;0.20;94.43;98569.59;4187575;28;20047;-72
2022/02/01 07:56:45;;;;;;;9.52;3.10;;;;;;;0.26;94.88;98570.28;4186230;28;20041;-72
2022/02/01 07:58:45;;;;;;;13.48;3.58;;;;;;;0.29;94.40;98569.66;4187196;28;20043;-72
2022/02/01 08:00:46;;;;;;;9.98;2.78;;;;;;;0.30;94.74;98565.00;4187395;28;20076;-72
2022/02/01 08:02:49;;;;;;;11.93;3.30;;;;;;;0.26;95.44;98557.47;4187271;28;20044;-72
2022/02/01 08:04:49;;;;;;;;;;;;;;;0.26;95.39;98560.19;4187782;28;20599;-71
2022/02/01 08:06:49;;;;;;;10.15;2.78;;;;;;;0.26;95.65;98562.91;4186000;28;19997;-71
2022/02/01 08:08:50;;;;;;;14.82;2.25;;;;;;;0.28;96.32;98570.78;4186573;28;20177;-72
2022/02/01 08:10:53;;;;;;;8.00;2.40;;;;;;;0.26;96.84;98567.56;4187024;28;20418;-72
2022/02/01 08:17:16;;;;;;;8.07;3.15;;;;;;;0.32;96.48;98579.91;4186343;28;20088;-72
2022/02/01 08:19:28;;;;;;;16.13;3.15;;;;;;;0.36;95.81;98588.28;4186918;28;20048;-72
2022/02/01 08:21:29;;;;;;;12.53;3.30;;;;;;;0.38;96.15;98581.41;4187152;28;20373;-72
2022/02/01 08:23:30;;;;;;;7.57;2.88;;;;;;;0.35;95.76;98570.34;4187150;28;20707;-72
2022/02/01 08:25:32;;;;;;;12.95;3.40;;;;;;;0.41;94.49;98569.88;4186891;28;20048;-72
2022/02/01 08:27:32;;;;;;;14.18;3.58;;;;;;;0.43;94.43;98558.72;4186260;28;20477;-72
2022/02/01 08:29:33;;;;;;;9.65;3.83;;;;;;;0.42;94.43;98555.19;4186515;28;20143;-72
2022/02/01 08:31:33;;;;;;;7.18;2.97;;;;;;;0.42;94.57;98563.34;4186569;28;20097;-71
2022/02/01 08:33:34;;;;;;;10.07;3.70;;;;;;;0.42;94.58;98557.13;4186908;28;20468;-72
2022/02/01 08:35:35;;;;;;;7.07;3.30;;;;;;;0.49;93.59;98541.94;4186805;28;20416;-72
2022/02/01 08:37:35;;;;;;;10.30;3.10;;;;;;;0.52;93.99;98543.25;4185845;28;20052;-72
2022/02/01 08:39:36;;;;;;;9.98;2.75;;;;;;;0.58;92.89;98550.19;4186712;28;20473;-72
2022/02/01 08:41:36;;;;;;;10.95;2.75;;;;;;;0.63;91.99;98550.03;4186844;28;20516;-71
2022/02/01 08:43:37;;;;;;;7.05;2.70;;;;;;;0.75;89.47;98538.59;4186646;28;20053;-72
2022/02/01 08:45:37;;;;;;;7.68;2.28;;;;;;;0.79;89.65;98534.09;4186478;28;20049;-72
2022/02/01 08:47:38;;;;;;;7.13;2.97;;;;;;;0.83;88.74;98537.84;4186102;28;20379;-72
2022/02/01 08:49:39;;;;;;;9.25;3.83;;;;;;;0.89;87.57;98530.31;4186296;28;20069;-72
2022/02/01 08:51:43;;;;;;;7.10;4.38;;;;;;;0.88;89.08;98532.22;4186708;28;20055;-72
2022/02/01 08:53:48;;;;;;;11.00;4.13;;;;;;;0.86;88.93;98520.84;4186687;28;20511;-72
2022/02/01 08:57:58;;;;;;;8.30;3.80;;;;;;;0.93;87.26;98517.69;4185612;28;20488;-72
2022/02/01 09:00:07;;;;;;;10.23;3.75;;;;;;;0.96;87.23;98514.31;4186254;28;20033;-71
2022/02/01 09:02:08;;;;;;;9.13;3.88;;;;;;;0.96;88.33;98512.41;4186018;28;20056;-72
2022/02/01 09:04:09;;;;;;;11.25;3.45;;;;;;;0.95;89.59;98501.81;4186398;28;20070;-72
2022/02/01 09:06:09;;;;;;;10.38;4.10;;;;;;;1.03;88.15;98493.69;4186097;28;20025;-72
2022/02/01 09:08:09;;;;;;;7.88;2.55;;;;;;;0.97;88.33;98477.78;4185256;28;20032;-72
2022/02/01 09:10:10;;;;;;;10.80;3.40;;;;;;;0.98;88.40;98477.47;4186475;28;20319;-72
2022/02/01 09:12:10;;;;;;;10.13;3.17;;;;;;;1.01;88.56;98471.41;4186046;28;20064;-72
2022/02/01 09:14:10;;;;;;;12.88;3.13;;;;;;;1.02;88.60;98456.66;4186374;28;20036;-72
2022/02/01 09:16:12;;;;;;;14.60;3.88;;;;;;;1.03;89.86;98457.47;4186361;28;20032;-72
2022/02/01 09:18:12;;;;;;;8.88;3.30;;;;;;;1.04;88.36;98467.22;4185678;28;20488;-72
2022/02/01 09:20:13;;;;;;;9.65;3.05;;;;;;;1.09;87.47;98448.81;4185447;28;20032;-72
2022/02/01 09:22:14;;;;;;;6.53;2.80;;;;;;;1.15;87.30;98456.84;4186535;28;20070;-72
2022/02/01 09:24:15;;;;;;;6.50;2.90;;;;;;;1.15;86.93;98456.84;4186333;28;20033;-72
2022/02/01 09:26:15;;;;;;;12.80;2.67;;;;;;;1.17;87.57;98438.28;4185886;28;20043;-72
2022/02/01 09:28:15;;;;;;;14.98;3.15;;;;;;;1.25;85.88;98445.66;4185314;28;20581;-72
2022/02/01 09:30:18;;;;;;;6.13;2.88;;;;;;;1.31;85.74;98426.09;4186223;28;20154;-72
2022/02/01 09:32:18;;;;;;;11.00;3.25;;;;;;;1.31;86.20;98437.00;4186368;28;20079;-72
2022/02/01 09:34:19;;;;;;;4.97;2.50;;;;;;;1.34;85.57;98443.75;4185684;28;20056;-72
2022/02/01 09:36:22;;;;;;;8.95;2.90;;;;;;;1.34;86.40;98452.72;4186138;28;20028;-72
2022/02/01 09:38:22;;;;;;;7.15;2.72;;;;;;;1.30;86.67;98454.47;4185379;28;20559;-72
2022/02/01 09:40:23;;;;;;;9.32;3.22;;;;;;;1.35;86.92;98461.72;4186298;28;20037;-72
2022/02/01 09:42:27;;;;;;;8.70;3.40;;;;;;;1.33;87.14;98456.59;4185978;28;20135;-72
2022/02/01 09:44:28;;;;;;;5.93;3.20;;;;;;;1.42;86.38;98451.16;4185993;28;20048;-72
2022/02/01 09:46:30;;;;;;;9.43;2.72;;;;;;;1.41;86.89;98446.81;4186008;28;20094;-72
2022/02/01 09:48:31;;;;;;;7.13;2.90;;;;;;;1.40;86.16;98443.25;4185262;28;20052;-72
2022/02/01 09:50:31;;;;;;;8.73;3.15;;;;;;;1.36;87.57;98438.78;4185892;28;20044;-72
2022/02/01 09:52:34;;;;;;;7.20;2.78;;;;;;;1.44;87.01;98437.19;4185881;28;20118;-72
2022/02/01 09:54:35;;;;;;;14.52;3.65;;;;;;;1.40;87.42;98432.34;4185752;28;20446;-72
2022/02/01 09:56:35;;;;;;;8.60;3.03;;;;;;;1.39;87.07;98416.31;4185235;28;20049;-72
2022/02/01 09:58:38;;;;;;;8.70;3.25;;;;;;;1.35;87.62;98408.00;4185890;28;20040;-72
2022/02/01 10:00:52;;;;;;;;;;;;;;;1.37;87.63;98404.94;4186505;28;20071;-72
2022/02/01 10:02:56;;;;;;;7.32;2.92;;;;;;;1.43;88.05;98416.50;4185380;28;19981;-72
2022/02/01 10:05:08;;;;;;;7.25;2.95;;;;;;;1.44;87.93;98410.72;4185851;28;20055;-72
2022/02/01 10:07:11;;;;;;;10.40;3.78;;;;;;;1.49;88.39;98409.75;4184664;28;20044;-72
2022/02/01 10:09:14;;;;;;;10.27;3.65;;;;;;;1.48;87.01;98410.88;4185545;28;20503;-72
2022/02/01 10:11:15;;;;;;;9.15;3.85;;;;;;;1.50;87.06;98414.91;4185666;28;20044;-73
2022/02/01 10:13:17;;;;;;;7.28;3.72;;;;;;;1.54;88.00;98413.13;4186045;28;20424;-72
2022/02/01 10:15:23;;;;;;;13.32;4.28;;;;;;;1.57;86.99;98415.25;4185213;28;20072;-72
2022/02/01 10:17:46;;;;;;;9.25;3.83;;;;;;;1.68;86.78;98400.16;4185041;28;20535;-72
2022/02/01 10:19:47;;;;;;;8.18;3.15;;;;;;;1.71;86.54;98392.44;4185790;28;20048;-72
2022/02/01 10:21:59;;;;;;;5.82;3.13;;;;;;;1.73;87.53;98382.00;4185641;28;20072;-73
2022/02/01 10:24:05;;;;;;;8.05;3.75;;;;;;;1.80;87.22;98371.41;4185503;28;20439;-72
2022/02/01 10:26:08;;;;;;;9.23;3.45;;;;;;;1.81;87.36;98362.09;4185072;28;20498;-73
2022/02/01 10:28:11;;;;;;;11.45;4.13;;;;;;;1.81;88.07;98357.44;4184936;28;20353;-73
2022/02/01 10:30:16;;;;;;;9.52;3.10;;;;;;;1.90;85.56;98352.78;4185628;28;20391;-72
2022/02/01 10:32:26;;;;;;;8.20;3.25;;;;;;;1.96;85.04;98339.75;4187979;28;20143;-72
2022/02/01 10:36:38;;;;;;;12.25;3.88;;;;;;;1.90;85.95;98338.31;4188760;28;20342;-72
2022/02/01 10:38:39;;;;;;;8.20;3.53;;;;;;;1.93;85.51;98338.50;4188309;28;20123;-72
2022/02/01 10:40:47;;;;;;;6.55;3.50;;;;;;;1.93;85.30;98316.66;4188700;28;20055;-72